createdAt,value
2019-03-04T00:00:47.231Z,8.40
2019-03-04T00:03:57.814Z,8.50
2019-03-04T00:07:05.227Z,8.60
2019-03-04T00:10:12.692Z,8.70
2019-03-04T00:13:20.106Z,8.70
2019-03-04T00:16:27.621Z,8.80
2019-03-04T00:19:35.643Z,8.90
2019-03-04T00:22:44.303Z,9.00
2019-03-04T00:25:51.883Z,9.00
2019-03-04T00:28:59.447Z,9.10
2019-03-04T00:32:06.927Z,9.10
2019-03-04T00:35:14.327Z,9.10
2019-03-04T00:38:21.775Z,9.10
2019-03-04T00:41:29.249Z,9.20
2019-03-04T00:44:36.763Z,9.10
2019-03-04T00:47:44.234Z,9.10
2019-03-04T00:50:51.677Z,9.10
2019-03-04T00:53:59.609Z,9.10
2019-03-04T00:57:07.058Z,9.00
2019-03-04T01:00:17.928Z,9.00
2019-03-04T01:03:25.377Z,8.90
2019-03-04T01:06:32.836Z,8.90
2019-03-04T01:09:40.281Z,8.90
2019-03-04T01:12:47.703Z,8.90
2019-03-04T01:15:55.188Z,8.80
2019-03-04T01:19:02.627Z,8.80
2019-03-04T01:22:10.067Z,8.80
2019-03-04T01:25:18.587Z,8.70
2019-03-04T01:28:27.001Z,8.70
2019-03-04T01:31:34.437Z,8.60
2019-03-04T01:34:41.889Z,8.60
2019-03-04T01:37:49.285Z,8.60
2019-03-04T01:40:56.746Z,8.60
2019-03-04T01:44:04.307Z,8.60
2019-03-04T01:47:11.937Z,8.60
2019-03-04T01:50:19.647Z,8.60
2019-03-04T01:53:27.207Z,8.60
2019-03-04T01:56:34.774Z,8.60
2019-03-04T01:59:42.231Z,8.60
2019-03-04T02:02:49.719Z,8.70
2019-03-04T02:05:57.242Z,8.80
2019-03-04T02:09:05.859Z,8.90
2019-03-04T02:12:15.066Z,8.90
2019-03-04T02:15:22.577Z,9.00
2019-03-04T02:18:30.051Z,9.00
2019-03-04T02:21:37.659Z,9.00
2019-03-04T02:24:45.097Z,9.00
2019-03-04T02:27:54.821Z,9.00
2019-03-04T02:31:02.277Z,9.00
2019-03-04T02:34:09.713Z,9.00
2019-03-04T02:37:17.241Z,9.00
2019-03-04T02:40:24.641Z,8.90
2019-03-04T02:43:32.082Z,8.90
2019-03-04T02:46:39.523Z,8.90
2019-03-04T02:49:47.015Z,8.90
2019-03-04T02:52:54.512Z,8.80
2019-03-04T02:56:01.986Z,8.80
2019-03-04T02:59:09.411Z,8.80
2019-03-04T03:02:17.002Z,8.80
2019-03-04T03:05:24.450Z,8.90
2019-03-04T03:08:32.306Z,9.00
2019-03-04T03:11:40.233Z,9.00
2019-03-04T03:14:47.682Z,9.00
2019-03-04T03:17:55.271Z,9.10
2019-03-04T03:21:02.727Z,9.10
2019-03-04T03:24:10.146Z,9.10
2019-03-04T03:27:17.611Z,9.10
2019-03-04T03:30:25.085Z,9.10
2019-03-04T03:33:32.482Z,9.10
2019-03-04T03:36:39.905Z,9.10
2019-03-04T03:39:47.321Z,9.10
2019-03-04T03:42:54.759Z,9.00
2019-03-04T03:46:03.245Z,9.00
2019-03-04T03:49:10.642Z,8.90
2019-03-04T03:52:18.095Z,8.90
2019-03-04T03:55:25.519Z,8.90
2019-03-04T03:58:32.930Z,8.80
2019-03-04T04:01:40.389Z,8.80
2019-03-04T04:04:47.907Z,8.80
2019-03-04T04:07:55.367Z,8.70
2019-03-04T04:11:03.944Z,8.70
2019-03-04T04:14:11.525Z,8.70
2019-03-04T04:17:18.939Z,8.70
2019-03-04T04:20:26.349Z,8.70
2019-03-04T04:23:33.818Z,8.70
2019-03-04T04:26:41.202Z,8.60
2019-03-04T04:29:48.664Z,8.60
2019-03-04T04:32:56.098Z,8.60
2019-03-04T04:36:03.558Z,8.60
2019-03-04T04:39:10.956Z,8.60
2019-03-04T04:42:18.474Z,8.60
2019-03-04T04:45:26.011Z,8.60
2019-03-04T04:48:33.462Z,8.60
2019-03-04T04:51:40.972Z,8.60
2019-03-04T04:54:48.414Z,8.60
2019-03-04T04:57:55.863Z,8.60
2019-03-04T05:01:03.416Z,8.50
2019-03-04T05:04:10.971Z,8.50
2019-03-04T05:07:18.566Z,8.50
2019-03-04T05:10:26.118Z,8.50
2019-03-04T05:13:33.565Z,8.50
2019-03-04T05:16:40.987Z,8.60
2019-03-04T05:19:48.527Z,8.60
2019-03-04T05:22:56.944Z,8.60
2019-03-04T05:26:04.469Z,8.60
2019-03-04T05:29:11.992Z,8.60
2019-03-04T05:32:19.463Z,8.60
2019-03-04T05:35:26.932Z,8.60
2019-03-04T05:38:34.431Z,8.60
2019-03-04T05:41:41.947Z,8.60
2019-03-04T05:44:49.864Z,8.60
2019-03-04T05:47:57.305Z,8.70
2019-03-04T05:51:04.831Z,8.70
2019-03-04T05:54:12.692Z,8.70
2019-03-04T05:57:20.146Z,8.70
2019-03-04T06:00:29.022Z,8.70
2019-03-04T06:03:36.488Z,8.70
2019-03-04T06:06:53.046Z,8.70
2019-03-04T06:10:00.517Z,8.80
2019-03-04T06:13:09.234Z,8.80
2019-03-04T06:16:16.702Z,8.80
2019-03-04T06:19:24.271Z,8.90
2019-03-04T06:22:31.758Z,9.00
2019-03-04T06:25:39.302Z,9.00
2019-03-04T06:28:46.821Z,9.10
2019-03-04T06:31:54.900Z,9.10
2019-03-04T06:35:02.498Z,9.10
2019-03-04T06:38:10.000Z,9.10
2019-03-04T06:41:18.508Z,9.20
2019-03-04T06:44:26.144Z,9.30
2019-03-04T06:47:33.645Z,9.30
2019-03-04T06:50:54.800Z,9.30
2019-03-04T06:54:50.931Z,9.40
2019-03-04T06:57:58.395Z,9.40
2019-03-04T07:01:12.747Z,9.50
2019-03-04T07:04:35.916Z,9.60
2019-03-04T07:07:43.434Z,9.60
2019-03-04T07:10:50.979Z,9.60
2019-03-04T07:13:58.410Z,9.80
2019-03-04T07:17:05.962Z,10.00
2019-03-04T07:20:14.232Z,10.50
2019-03-04T07:23:21.771Z,11.10
2019-03-04T07:26:29.304Z,11.30
2019-03-04T07:29:36.786Z,11.80
2019-03-04T07:32:44.621Z,12.40
2019-03-04T07:35:52.113Z,12.40
2019-03-04T07:39:06.022Z,12.50
2019-03-04T07:42:14.873Z,12.60
2019-03-04T07:45:23.930Z,12.90
2019-03-04T07:48:31.449Z,12.90
2019-03-04T07:51:39.030Z,13.30
2019-03-04T07:54:46.468Z,13.40
2019-03-04T07:57:53.933Z,13.70
2019-03-04T08:01:01.389Z,13.60
2019-03-04T08:04:08.857Z,13.70
2019-03-04T08:07:49.166Z,13.90
2019-03-04T08:11:47.680Z,14.10
2019-03-04T08:14:55.169Z,14.70
2019-03-04T08:18:02.835Z,15.20
2019-03-04T08:21:10.385Z,15.60
2019-03-04T08:24:17.809Z,15.60
2019-03-04T08:27:25.300Z,16.00
2019-03-04T08:30:32.823Z,16.80
2019-03-04T08:33:40.352Z,16.40
2019-03-04T08:36:47.830Z,16.40
2019-03-04T08:39:55.304Z,16.60
2019-03-04T08:43:02.824Z,16.80
2019-03-04T08:46:10.344Z,16.40
2019-03-04T08:49:17.893Z,16.60
2019-03-04T08:52:25.460Z,16.40
2019-03-04T08:55:32.928Z,16.50
2019-03-04T08:58:40.469Z,16.70
2019-03-04T09:01:47.937Z,16.50
2019-03-04T09:04:56.635Z,16.50
2019-03-04T09:08:04.138Z,16.60
2019-03-04T09:11:11.763Z,17.10
2019-03-04T09:14:19.314Z,17.40
2019-03-04T09:17:26.804Z,17.60
2019-03-04T09:20:36.126Z,16.70
2019-03-04T09:23:43.658Z,16.00
2019-03-04T09:26:51.418Z,15.30
2019-03-04T09:29:58.924Z,15.10
2019-03-04T09:33:06.559Z,14.60
2019-03-04T09:36:14.071Z,14.20
2019-03-04T09:39:21.640Z,14.10
2019-03-04T09:42:29.563Z,13.90
2019-03-04T09:45:39.217Z,13.70
2019-03-04T09:48:47.888Z,13.90
2019-03-04T09:51:55.450Z,14.10
2019-03-04T09:55:02.909Z,14.10
2019-03-04T09:58:10.481Z,14.00
2019-03-04T10:01:27.632Z,13.70
2019-03-04T10:04:57.629Z,13.90
2019-03-04T10:08:48.718Z,14.20
2019-03-04T10:12:34.877Z,14.30
2019-03-04T10:16:06.919Z,14.60
2019-03-04T10:20:03.365Z,14.40
2019-03-04T10:23:46.214Z,14.60
2019-03-04T10:27:25.262Z,14.80
2019-03-04T10:30:49.059Z,15.90
2019-03-04T10:34:35.494Z,16.40
2019-03-04T10:38:22.182Z,17.00
2019-03-04T10:41:53.923Z,17.50
2019-03-04T10:45:18.705Z,18.00
2019-03-04T10:48:26.379Z,17.80
2019-03-04T10:51:33.988Z,17.30
2019-03-04T10:54:41.498Z,17.50
2019-03-04T10:57:48.991Z,17.20
2019-03-04T11:00:56.451Z,17.10
2019-03-04T11:04:04.088Z,16.30
2019-03-04T11:07:11.631Z,16.00
2019-03-04T11:10:19.150Z,15.60
2019-03-04T11:13:26.725Z,15.60
2019-03-04T11:16:34.633Z,15.80
2019-03-04T11:19:42.206Z,16.20
2019-03-04T11:22:49.724Z,16.60
2019-03-04T11:25:57.268Z,16.60
2019-03-04T11:29:05.901Z,16.40
2019-03-04T11:32:13.332Z,16.60
2019-03-04T11:35:20.780Z,16.90
2019-03-04T11:38:46.405Z,17.20
2019-03-04T11:41:53.933Z,17.30
2019-03-04T11:45:01.376Z,17.20
2019-03-04T11:48:09.076Z,16.90
2019-03-04T11:51:16.599Z,16.70
2019-03-04T11:54:24.036Z,16.30
2019-03-04T11:57:31.612Z,16.20
2019-03-04T12:00:47.051Z,15.80
2019-03-04T12:03:55.109Z,15.70
2019-03-04T12:07:02.673Z,15.70
2019-03-04T12:10:12.636Z,15.50
2019-03-04T12:13:20.271Z,15.40
2019-03-04T12:16:29.419Z,15.30
2019-03-04T12:19:37.052Z,15.20
2019-03-04T12:22:44.754Z,15.20
2019-03-04T12:25:52.312Z,15.00
2019-03-04T12:28:59.773Z,14.90
2019-03-04T12:32:10.670Z,14.80
2019-03-04T12:35:18.659Z,14.80
2019-03-04T12:38:26.171Z,14.70
2019-03-04T12:41:34.799Z,14.60
2019-03-04T12:51:33.650Z,14.70
2019-03-04T12:54:41.295Z,14.70
2019-03-04T12:57:48.890Z,14.80
2019-03-04T13:00:57.989Z,14.90
2019-03-04T13:04:05.519Z,15.10
2019-03-04T13:07:13.007Z,15.10
2019-03-04T13:10:20.760Z,15.10
2019-03-04T13:13:28.321Z,15.00
2019-03-04T13:16:36.008Z,15.00
2019-03-04T13:19:43.606Z,14.90
2019-03-04T13:22:51.082Z,14.80
2019-03-04T13:25:58.552Z,14.70
2019-03-04T13:29:06.331Z,14.70
2019-03-04T13:32:13.880Z,14.70
2019-03-04T13:35:24.836Z,14.50
2019-03-04T13:38:31.715Z,14.40
2019-03-04T13:41:39.267Z,14.30
2019-03-04T13:44:46.763Z,14.30
2019-03-04T13:47:54.624Z,14.20
2019-03-04T13:51:03.350Z,14.20
2019-03-04T13:54:10.785Z,14.10
2019-03-04T13:57:18.332Z,14.10
2019-03-04T14:00:25.831Z,14.00
2019-03-04T14:03:33.371Z,14.00
2019-03-04T14:06:40.857Z,14.00
2019-03-04T14:09:48.419Z,13.90
2019-03-04T14:12:55.920Z,14.00
2019-03-04T14:16:04.027Z,14.00
2019-03-04T14:19:11.477Z,13.90
2019-03-04T14:22:19.093Z,13.90
2019-03-04T14:25:26.567Z,14.00
2019-03-04T14:28:34.121Z,13.90
2019-03-04T14:31:41.565Z,14.00
2019-03-04T14:34:49.085Z,14.00
2019-03-04T14:37:56.726Z,14.00
2019-03-04T14:41:04.536Z,14.00
2019-03-04T14:44:12.155Z,14.10
2019-03-04T14:47:19.690Z,14.10
2019-03-04T14:50:28.612Z,14.20
2019-03-04T14:53:36.291Z,14.30
2019-03-04T14:56:43.858Z,14.30
2019-03-04T14:59:51.479Z,14.40
2019-03-04T15:02:59.055Z,14.40
2019-03-04T15:06:07.362Z,14.50
2019-03-04T15:09:15.861Z,14.50
2019-03-04T15:12:23.415Z,14.60
2019-03-04T15:15:31.569Z,14.60
2019-03-04T15:18:39.287Z,14.60
2019-03-04T15:21:49.105Z,14.70
2019-03-04T15:24:56.044Z,14.80
2019-03-04T15:28:18.924Z,14.80
2019-03-04T15:31:26.888Z,14.80
2019-03-04T15:34:34.480Z,14.80
2019-03-04T15:37:42.153Z,14.80
2019-03-04T15:40:49.800Z,14.80
2019-03-04T15:43:57.363Z,14.70
2019-03-04T15:47:04.986Z,14.70
2019-03-04T15:50:12.931Z,14.70
2019-03-04T15:53:20.446Z,14.70
2019-03-04T15:56:28.927Z,14.60
2019-03-04T15:59:36.551Z,14.50
2019-03-04T16:02:44.208Z,14.50
2019-03-04T16:05:51.801Z,14.40
2019-03-04T16:08:59.355Z,14.30
2019-03-04T16:12:08.433Z,14.20
2019-03-04T16:15:17.167Z,14.10
2019-03-04T16:18:24.827Z,14.00
2019-03-04T16:21:32.454Z,13.90
2019-03-04T16:24:40.069Z,13.80
2019-03-04T16:27:47.720Z,13.70
2019-03-04T16:30:55.250Z,13.60
2019-03-04T16:34:02.946Z,13.60
2019-03-04T16:37:10.759Z,13.50
2019-03-04T16:40:18.556Z,13.50
2019-03-04T16:43:26.385Z,13.40
2019-03-04T16:46:34.415Z,13.50
2019-03-04T16:49:42.192Z,13.40
2019-03-04T16:52:50.699Z,13.40
2019-03-04T16:55:58.281Z,13.30
2019-03-04T16:59:06.229Z,13.30
2019-03-04T17:02:14.224Z,13.30
2019-03-04T17:05:22.283Z,13.30
2019-03-04T17:08:29.942Z,13.30
2019-03-04T17:11:37.898Z,13.20
2019-03-04T17:14:45.595Z,13.10
2019-03-04T17:17:53.101Z,13.00
2019-03-04T17:21:00.621Z,13.00
2019-03-04T17:24:08.727Z,13.00
2019-03-04T17:27:16.436Z,13.00
2019-03-04T17:30:24.007Z,13.00
2019-03-04T17:33:31.492Z,13.00
2019-03-04T17:36:40.095Z,13.00
2019-03-04T17:39:47.667Z,12.90
2019-03-04T17:42:55.331Z,13.00
2019-03-04T17:46:02.975Z,12.90
2019-03-04T17:49:10.582Z,12.90
2019-03-04T17:52:18.157Z,12.90
2019-03-04T17:55:25.761Z,12.80
2019-03-04T17:58:33.427Z,12.80
2019-03-04T18:01:42.082Z,12.80
2019-03-04T18:04:51.433Z,12.90
2019-03-04T18:08:00.072Z,12.90
2019-03-04T18:11:07.665Z,12.90
2019-03-04T18:14:15.219Z,12.80
2019-03-04T18:17:22.856Z,12.70
2019-03-04T18:20:34.603Z,12.50
2019-03-04T18:23:42.142Z,12.20
2019-03-04T18:27:17.339Z,12.00
2019-03-04T18:30:35.588Z,11.70
2019-03-04T18:34:32.141Z,11.50
2019-03-04T18:38:24.799Z,11.30
2019-03-04T18:42:11.949Z,11.10
2019-03-04T18:46:23.088Z,10.90
2019-03-04T18:49:30.690Z,10.70
2019-03-04T18:52:38.254Z,10.40
2019-03-04T18:55:45.976Z,10.20
2019-03-04T18:58:53.678Z,10.00
2019-03-04T19:02:01.316Z,9.80
2019-03-04T19:05:09.460Z,9.60
2019-03-04T19:08:17.181Z,9.50
2019-03-04T19:11:24.816Z,9.30
2019-03-04T19:14:32.559Z,9.10
2019-03-04T19:17:40.204Z,8.90
2019-03-04T19:20:47.850Z,8.80
2019-03-04T19:23:55.508Z,8.70
2019-03-04T19:27:03.093Z,8.60
2019-03-04T19:30:11.061Z,8.50
2019-03-04T19:33:18.855Z,8.40
2019-03-04T19:36:26.520Z,8.30
2019-03-04T19:39:34.329Z,8.30
2019-03-04T19:42:41.885Z,8.30
2019-03-04T19:45:50.292Z,8.30
2019-03-04T19:48:57.942Z,8.20
2019-03-04T19:52:05.499Z,8.30
2019-03-04T19:55:13.645Z,8.50
2019-03-04T19:58:21.312Z,8.50
2019-03-04T20:01:28.935Z,8.60
2019-03-04T20:04:37.196Z,8.50
2019-03-04T20:07:45.851Z,8.70
2019-03-04T20:10:53.420Z,9.00
2019-03-04T20:14:00.921Z,9.20
2019-03-04T20:17:08.585Z,9.30
2019-03-04T20:20:16.285Z,9.40
2019-03-04T20:23:24.243Z,9.60
2019-03-04T20:26:31.859Z,9.60
2019-03-04T20:29:39.479Z,9.50
2019-03-04T20:32:48.816Z,9.20
2019-03-04T20:35:56.414Z,8.90
2019-03-04T20:39:05.452Z,8.90
2019-03-04T20:42:15.130Z,8.90
2019-03-04T20:45:30.292Z,8.90
2019-03-04T20:48:37.792Z,9.00
2019-03-04T20:51:45.256Z,8.90
2019-03-04T20:54:52.829Z,8.90
2019-03-04T20:58:00.478Z,8.80
2019-03-04T21:01:08.018Z,8.70
2019-03-04T21:04:15.654Z,8.70
2019-03-04T21:07:23.349Z,8.70
2019-03-04T21:10:31.009Z,8.60
2019-03-04T21:13:38.575Z,8.60
2019-03-04T21:16:46.178Z,8.60
2019-03-04T21:19:53.933Z,8.60
2019-03-04T21:23:01.512Z,8.50
2019-03-04T21:26:27.250Z,8.60
2019-03-04T21:30:18.874Z,8.50
2019-03-04T21:34:03.191Z,8.40
2019-03-04T21:37:30.990Z,8.30
2019-03-04T21:40:51.297Z,8.20
2019-03-04T21:44:07.974Z,8.10
2019-03-04T21:47:41.129Z,8.00
2019-03-04T21:51:38.146Z,8.00
2019-03-04T21:54:41.922Z,7.90
2019-03-04T21:57:55.847Z,7.80
2019-03-04T22:01:09.624Z,7.70
2019-03-04T22:04:17.167Z,7.70
2019-03-04T22:07:25.070Z,7.70
2019-03-04T22:10:33.291Z,7.70
2019-03-04T22:13:40.989Z,7.70
2019-03-04T22:16:48.848Z,7.70
2019-03-04T22:19:56.942Z,7.80
2019-03-04T22:23:04.498Z,7.80
2019-03-04T22:26:12.055Z,7.70
2019-03-04T22:29:19.582Z,7.80
2019-03-04T22:32:27.139Z,7.80
2019-03-04T22:35:34.765Z,7.80
2019-03-04T22:38:42.290Z,7.80
2019-03-04T22:41:49.903Z,7.80
2019-03-04T22:44:57.530Z,7.80
2019-03-04T22:48:05.052Z,7.80
2019-03-04T22:51:12.706Z,7.80
2019-03-04T22:54:20.285Z,7.80
2019-03-04T22:57:27.900Z,7.80
2019-03-04T23:01:26.676Z,7.80
2019-03-04T23:05:05.560Z,7.80
2019-03-04T23:08:14.550Z,7.90
2019-03-04T23:11:25.783Z,7.90
2019-03-04T23:14:33.382Z,7.90
2019-03-04T23:17:40.866Z,8.00
2019-03-04T23:20:48.431Z,8.00
2019-03-04T23:23:56.018Z,8.00
2019-03-04T23:27:03.593Z,8.00
2019-03-04T23:30:15.402Z,8.00
2019-03-04T23:33:23.058Z,8.00
2019-03-04T23:36:31.549Z,8.10
2019-03-04T23:39:40.727Z,8.10
2019-03-04T23:42:48.298Z,8.10
2019-03-04T23:45:55.838Z,8.10
2019-03-04T23:49:03.334Z,8.10
2019-03-04T23:52:10.845Z,8.10
2019-03-04T23:55:18.418Z,8.10
2019-03-04T23:58:25.952Z,8.10
